createdAt,value
2022-08-05T00:01:36.549Z,18.40
2022-08-05T00:04:16.916Z,18.40
2022-08-05T00:06:44.806Z,18.40
2022-08-05T00:09:15.761Z,18.30
2022-08-05T00:11:48.379Z,18.20
2022-08-05T00:14:17.432Z,18.10
2022-08-05T00:16:52.971Z,18.20
2022-08-05T00:19:23.306Z,18.10
2022-08-05T00:21:54.007Z,18.10
2022-08-05T00:24:24.217Z,18.20
2022-08-05T00:26:53.561Z,18.20
2022-08-05T00:29:22.624Z,18.10
2022-08-05T00:32:13.169Z,18.10
2022-08-05T00:35:04.582Z,18.10
2022-08-05T00:37:35.423Z,18.10
2022-08-05T00:40:26.672Z,18.10
2022-08-05T00:42:59.732Z,18.10
2022-08-05T00:45:38.122Z,18.00
2022-08-05T00:48:08.261Z,18.10
2022-08-05T00:50:36.567Z,18.00
2022-08-05T00:53:03.795Z,18.00
2022-08-05T00:55:42.811Z,18.00
2022-08-05T00:58:13.860Z,17.90
2022-08-05T01:00:42.206Z,17.90
2022-08-05T01:03:22.270Z,17.80
2022-08-05T01:05:54.911Z,17.80
2022-08-05T01:08:40.698Z,17.80
2022-08-05T01:11:13.685Z,17.70
2022-08-05T01:13:58.904Z,17.70
2022-08-05T01:16:40.596Z,17.70
2022-08-05T01:19:46.104Z,17.60
2022-08-05T01:22:34.093Z,17.50
2022-08-05T01:25:22.817Z,17.40
2022-08-05T01:28:08.821Z,17.40
2022-08-05T01:30:40.349Z,17.40
2022-08-05T01:33:21.856Z,17.40
2022-08-05T01:35:55.602Z,17.30
2022-08-05T01:38:30.083Z,17.40
2022-08-05T01:41:01.986Z,17.30
2022-08-05T01:43:30.720Z,17.30
2022-08-05T01:45:58.573Z,17.30
2022-08-05T01:48:36.835Z,17.40
2022-08-05T01:51:12.521Z,17.30
2022-08-05T01:53:58.301Z,17.30
2022-08-05T01:58:10.721Z,17.30
2022-08-05T01:59:20.324Z,17.40
2022-08-05T02:01:49.709Z,17.40
2022-08-05T02:04:20.740Z,17.30
2022-08-05T02:06:48.220Z,17.30
2022-08-05T02:09:16.450Z,17.30
2022-08-05T02:12:04.984Z,17.30
2022-08-05T02:15:04.452Z,17.30
2022-08-05T02:18:27.885Z,17.30
2022-08-05T02:20:39.066Z,17.30
2022-08-05T02:23:11.009Z,17.30
2022-08-05T02:25:49.072Z,17.20
2022-08-05T02:28:29.337Z,17.30
2022-08-05T02:31:02.726Z,17.20
2022-08-05T02:33:38.149Z,17.20
2022-08-05T02:36:09.589Z,17.10
2022-08-05T02:38:38.501Z,17.10
2022-08-05T02:41:17.221Z,17.10
2022-08-05T02:44:02.901Z,17.10
2022-08-05T02:46:34.423Z,17.00
2022-08-05T02:49:03.167Z,17.00
2022-08-05T02:52:03.012Z,17.00
2022-08-05T02:54:34.984Z,17.00
2022-08-05T02:57:10.399Z,17.00
2022-08-05T02:59:55.799Z,16.90
2022-08-05T03:02:29.029Z,16.90
2022-08-05T03:04:58.645Z,16.90
2022-08-05T03:08:00.848Z,16.90
2022-08-05T03:10:24.638Z,16.90
2022-08-05T03:12:53.165Z,16.90
2022-08-05T03:15:23.384Z,16.90
2022-08-05T03:17:56.030Z,17.00
2022-08-05T03:20:25.208Z,16.90
2022-08-05T03:23:05.137Z,17.00
2022-08-05T03:26:30.536Z,17.00
2022-08-05T03:28:20.806Z,17.00
2022-08-05T03:30:51.055Z,17.00
2022-08-05T03:33:22.757Z,17.00
2022-08-05T03:35:59.757Z,17.00
2022-08-05T03:38:33.172Z,17.10
2022-08-05T03:41:00.823Z,17.10
2022-08-05T03:44:09.731Z,17.10
2022-08-05T03:46:22.988Z,17.20
2022-08-05T03:48:56.488Z,17.20
2022-08-05T03:52:49.325Z,17.30
2022-08-05T03:55:50.221Z,17.30
2022-08-05T03:57:41.815Z,17.40
2022-08-05T04:00:15.894Z,17.40
2022-08-05T04:02:52.095Z,17.50
2022-08-05T04:05:33.261Z,17.50
2022-08-05T04:08:05.483Z,17.60
2022-08-05T04:10:37.967Z,17.60
2022-08-05T04:13:07.708Z,17.70
2022-08-05T04:15:36.501Z,17.80
2022-08-05T04:18:06.998Z,17.80
2022-08-05T04:20:34.585Z,17.90
2022-08-05T04:23:01.861Z,18.00
2022-08-05T04:25:57.900Z,18.10
2022-08-05T04:28:17.247Z,18.20
2022-08-05T04:30:44.822Z,18.30
2022-08-05T04:33:12.209Z,18.40
2022-08-05T04:36:11.110Z,19.00
2022-08-05T04:38:39.093Z,20.10
2022-08-05T04:41:09.525Z,21.20
2022-08-05T04:43:48.059Z,21.70
2022-08-05T04:46:28.248Z,21.70
2022-08-05T04:48:57.965Z,21.60
2022-08-05T04:51:25.981Z,21.30
2022-08-05T04:53:57.724Z,21.00
2022-08-05T04:56:34.553Z,20.90
2022-08-05T04:59:24.324Z,20.90
2022-08-05T05:02:07.590Z,20.80
2022-08-05T05:04:47.889Z,20.60
2022-08-05T05:07:17.878Z,20.40
2022-08-05T05:09:45.595Z,20.40
2022-08-05T05:12:12.675Z,20.40
2022-08-05T05:14:49.321Z,20.40
2022-08-05T05:17:23.454Z,20.40
2022-08-05T05:19:54.010Z,20.40
2022-08-05T05:22:24.576Z,20.40
2022-08-05T05:25:00.132Z,20.50
2022-08-05T05:27:44.636Z,20.50
2022-08-05T05:30:30.866Z,20.60
2022-08-05T05:33:09.422Z,20.70
2022-08-05T05:35:48.295Z,20.80
2022-08-05T05:38:22.942Z,20.90
2022-08-05T05:40:58.172Z,21.00
2022-08-05T05:43:57.523Z,21.20
2022-08-05T05:46:17.258Z,21.30
2022-08-05T05:48:48.043Z,21.60
2022-08-05T05:51:23.248Z,21.70
2022-08-05T05:53:57.420Z,22.30
2022-08-05T05:56:32.486Z,22.90
2022-08-05T05:59:06.776Z,23.00
2022-08-05T06:01:37.416Z,22.90
2022-08-05T06:04:11.745Z,23.10
2022-08-05T06:06:43.071Z,23.60
2022-08-05T06:09:17.280Z,24.40
2022-08-05T06:11:59.071Z,25.40
2022-08-05T06:14:28.086Z,25.90
2022-08-05T06:16:55.946Z,25.50
2022-08-05T06:19:26.154Z,24.80
2022-08-05T06:22:06.392Z,24.30
2022-08-05T06:24:34.898Z,23.80
2022-08-05T06:27:03.894Z,23.50
2022-08-05T06:29:46.799Z,23.50
2022-08-05T06:32:25.446Z,23.50
2022-08-05T06:34:56.196Z,23.60
2022-08-05T06:37:55.548Z,23.70
2022-08-05T06:40:18.249Z,23.70
2022-08-05T06:42:51.549Z,23.70
2022-08-05T06:46:03.041Z,23.70
2022-08-05T06:48:36.869Z,23.90
2022-08-05T06:50:55.555Z,24.10
2022-08-05T06:53:28.278Z,24.20
2022-08-05T06:55:57.398Z,24.30
2022-08-05T06:58:35.388Z,24.50
2022-08-05T07:01:06.252Z,24.60
2022-08-05T07:03:34.162Z,24.80
2022-08-05T07:06:06.266Z,24.80
2022-08-05T07:08:47.467Z,25.00
2022-08-05T07:11:22.468Z,25.00
2022-08-05T07:14:20.586Z,25.00
2022-08-05T07:17:59.331Z,25.30
2022-08-05T07:22:35.711Z,25.70
2022-08-05T07:25:23.217Z,25.80
2022-08-05T07:27:58.023Z,26.20
2022-08-05T07:30:31.814Z,26.90
2022-08-05T07:33:00.885Z,27.50
2022-08-05T07:36:04.909Z,27.20
2022-08-05T07:38:32.001Z,26.90
2022-08-05T07:42:07.355Z,27.00
2022-08-05T07:43:56.223Z,27.00
2022-08-05T07:46:26.243Z,26.80
2022-08-05T07:49:02.709Z,27.00
2022-08-05T07:51:48.635Z,26.80
2022-08-05T07:54:26.347Z,26.90
2022-08-05T07:57:13.675Z,27.10
2022-08-05T07:59:41.466Z,27.50
2022-08-05T08:02:15.773Z,27.90
2022-08-05T08:04:47.781Z,28.30
2022-08-05T08:07:17.961Z,28.40
2022-08-05T08:09:45.995Z,28.50
2022-08-05T08:12:33.627Z,28.30
2022-08-05T08:15:02.172Z,28.10
2022-08-05T08:17:30.246Z,27.80
2022-08-05T08:20:22.066Z,27.80
2022-08-05T08:22:44.336Z,28.00
2022-08-05T08:25:16.420Z,27.90
2022-08-05T08:27:47.365Z,27.60
2022-08-05T08:30:29.500Z,27.30
2022-08-05T08:33:08.662Z,27.30
2022-08-05T08:35:53.077Z,27.30
2022-08-05T08:38:36.060Z,27.50
2022-08-05T08:41:09.935Z,27.60
2022-08-05T08:45:16.624Z,27.60
2022-08-05T08:46:31.950Z,27.60
2022-08-05T08:49:17.453Z,27.50
2022-08-05T08:52:04.012Z,27.50
2022-08-05T08:54:34.231Z,27.70
2022-08-05T08:57:11.467Z,27.90
2022-08-05T08:59:41.959Z,28.10
2022-08-05T09:02:16.653Z,28.30
2022-08-05T09:04:58.202Z,28.30
2022-08-05T09:07:39.486Z,28.10
2022-08-05T09:10:20.646Z,28.20
2022-08-05T09:12:54.389Z,28.10
2022-08-05T09:15:23.646Z,28.30
2022-08-05T09:17:53.031Z,28.60
2022-08-05T09:20:20.859Z,29.00
2022-08-05T09:23:19.674Z,29.40
2022-08-05T09:26:20.464Z,30.00
2022-08-05T09:28:48.552Z,31.00
2022-08-05T09:31:22.366Z,32.40
2022-08-05T09:34:07.606Z,33.10
2022-08-05T09:36:54.106Z,33.60
2022-08-05T09:39:41.426Z,33.40
2022-08-05T09:42:23.152Z,33.30
2022-08-05T09:44:56.113Z,33.00
2022-08-05T09:47:25.926Z,32.50
2022-08-05T09:50:02.063Z,31.80
2022-08-05T09:52:30.206Z,31.40
2022-08-05T09:55:57.128Z,30.90
2022-08-05T09:57:58.728Z,30.60
2022-08-05T10:00:30.492Z,30.20
2022-08-05T10:02:59.044Z,29.60
2022-08-05T10:05:33.014Z,29.70
2022-08-05T10:08:35.256Z,29.90
2022-08-05T10:10:54.176Z,30.10
2022-08-05T10:13:45.741Z,30.30
2022-08-05T10:16:37.625Z,30.40
2022-08-05T10:19:09.267Z,30.60
2022-08-05T10:21:41.005Z,30.20
2022-08-05T10:24:13.735Z,29.90
2022-08-05T10:26:51.563Z,29.70
2022-08-05T10:29:24.051Z,29.60
2022-08-05T10:32:55.809Z,29.40
2022-08-05T10:35:01.113Z,29.20
2022-08-05T10:37:44.573Z,29.00
2022-08-05T10:40:38.950Z,29.00
2022-08-05T10:43:36.937Z,28.90
2022-08-05T10:46:08.223Z,28.90
2022-08-05T10:48:56.592Z,28.80
2022-08-05T10:51:28.470Z,28.70
2022-08-05T10:54:22.960Z,28.70
2022-08-05T10:56:56.099Z,28.70
2022-08-05T11:00:02.727Z,28.60
2022-08-05T11:02:34.795Z,28.40
2022-08-05T11:05:10.540Z,28.40
2022-08-05T11:08:02.830Z,28.40
2022-08-05T11:10:37.297Z,28.40
2022-08-05T11:13:06.588Z,28.50
2022-08-05T11:16:00.623Z,28.40
2022-08-05T11:18:32.646Z,28.30
2022-08-05T11:21:11.222Z,28.40
2022-08-05T11:24:03.912Z,28.40
2022-08-05T11:26:43.210Z,28.40
2022-08-05T11:29:43.177Z,28.50
2022-08-05T11:32:27.617Z,28.50
2022-08-05T11:34:55.547Z,28.40
2022-08-05T11:38:28.001Z,28.40
2022-08-05T11:41:35.359Z,28.40
2022-08-05T11:44:05.516Z,28.30
2022-08-05T11:46:35.323Z,28.30
2022-08-05T11:49:03.937Z,28.40
2022-08-05T11:51:44.367Z,28.40
2022-08-05T11:54:33.094Z,28.30
2022-08-05T11:57:08.560Z,28.30
2022-08-05T11:59:50.649Z,28.30
2022-08-05T12:02:30.067Z,28.20
2022-08-05T12:05:08.221Z,28.20
2022-08-05T12:08:03.702Z,28.10
2022-08-05T12:10:43.161Z,28.10
2022-08-05T12:13:28.042Z,28.20
2022-08-05T12:16:15.317Z,28.30
2022-08-05T12:18:52.765Z,28.30
2022-08-05T12:21:39.274Z,28.30
2022-08-05T12:24:13.951Z,28.20
2022-08-05T12:26:46.551Z,28.30
2022-08-05T12:29:17.765Z,28.30
2022-08-05T12:31:53.696Z,28.20
2022-08-05T12:34:25.789Z,28.30
2022-08-05T12:36:54.561Z,28.20
2022-08-05T12:39:23.658Z,28.20
2022-08-05T12:42:02.056Z,28.20
2022-08-05T12:44:33.739Z,28.20
2022-08-05T12:47:02.076Z,28.20
2022-08-05T12:50:03.448Z,28.10
2022-08-05T12:52:32.403Z,28.10
2022-08-05T12:55:15.839Z,28.10
2022-08-05T12:58:38.512Z,28.10
2022-08-05T13:02:04.443Z,28.10
2022-08-05T13:03:21.647Z,28.10
2022-08-05T13:05:50.135Z,28.10
2022-08-05T13:08:20.120Z,28.20
2022-08-05T13:10:50.311Z,28.30
2022-08-05T13:14:06.742Z,28.30
2022-08-05T13:16:15.472Z,28.30
2022-08-05T13:18:55.169Z,28.30
2022-08-05T13:21:27.688Z,28.30
2022-08-05T13:23:55.777Z,28.20
2022-08-05T13:26:30.051Z,28.10
2022-08-05T13:28:57.569Z,28.10
2022-08-05T13:31:34.082Z,28.20
2022-08-05T13:34:20.918Z,28.30
2022-08-05T13:36:52.922Z,28.20
2022-08-05T13:40:13.054Z,28.20
2022-08-05T13:42:07.329Z,28.20
2022-08-05T13:44:34.823Z,28.30
2022-08-05T13:47:08.524Z,28.30
2022-08-05T13:49:36.287Z,28.40
2022-08-05T13:52:14.870Z,28.40
2022-08-05T13:54:42.125Z,28.40
2022-08-05T13:57:09.950Z,28.30
2022-08-05T13:59:38.086Z,28.30
2022-08-05T14:02:26.562Z,28.30
2022-08-05T14:05:15.068Z,28.30
2022-08-05T14:08:00.139Z,28.30
2022-08-05T14:10:31.352Z,28.40
2022-08-05T14:12:59.389Z,28.30
2022-08-05T14:16:06.817Z,28.20
2022-08-05T14:18:17.727Z,28.20
2022-08-05T14:20:47.669Z,28.30
2022-08-05T14:23:23.410Z,28.30
2022-08-05T14:25:55.351Z,28.40
2022-08-05T14:28:29.891Z,28.40
2022-08-05T14:30:58.279Z,28.30
2022-08-05T14:33:25.667Z,28.30
2022-08-05T14:35:54.308Z,28.30
2022-08-05T14:38:33.152Z,28.30
2022-08-05T14:41:06.099Z,28.30
2022-08-05T14:43:59.036Z,28.30
2022-08-05T14:46:21.352Z,28.30
2022-08-05T14:48:49.197Z,28.30
2022-08-05T14:51:19.623Z,28.30
2022-08-05T14:54:06.888Z,28.30
2022-08-05T14:56:38.020Z,28.20
2022-08-05T14:59:11.668Z,28.20
2022-08-05T15:01:48.702Z,28.20
2022-08-05T15:04:22.370Z,28.20
2022-08-05T15:06:53.079Z,28.20
2022-08-05T15:09:51.431Z,28.30
2022-08-05T15:12:16.543Z,28.30
2022-08-05T15:14:50.497Z,28.20
2022-08-05T15:17:46.651Z,28.20
2022-08-05T15:20:17.174Z,28.20
2022-08-05T15:22:52.244Z,28.30
2022-08-05T15:25:23.660Z,28.40
2022-08-05T15:28:08.744Z,28.30
2022-08-05T15:30:40.363Z,28.40
2022-08-05T15:33:07.616Z,28.30
2022-08-05T15:35:36.292Z,28.30
2022-08-05T15:38:31.780Z,28.30
2022-08-05T15:41:20.310Z,28.30
2022-08-05T15:43:46.013Z,28.20
2022-08-05T15:46:14.273Z,28.20
2022-08-05T15:48:52.665Z,28.20
2022-08-05T15:52:10.135Z,28.10
2022-08-05T15:54:16.892Z,28.10
2022-08-05T15:56:43.937Z,28.00
2022-08-05T15:59:21.872Z,27.90
2022-08-05T16:01:52.449Z,27.90
2022-08-05T16:04:25.197Z,27.80
2022-08-05T16:06:53.926Z,27.80
2022-08-05T16:09:23.645Z,27.80
2022-08-05T16:11:53.218Z,27.80
2022-08-05T16:14:22.268Z,27.70
2022-08-05T16:16:50.070Z,27.70
2022-08-05T16:19:25.467Z,27.60
2022-08-05T16:22:04.452Z,27.60
2022-08-05T16:24:41.908Z,27.50
2022-08-05T16:27:18.516Z,27.40
2022-08-05T16:29:51.079Z,27.30
2022-08-05T16:32:28.715Z,27.30
2022-08-05T16:34:58.970Z,27.30
2022-08-05T16:38:02.533Z,27.30
2022-08-05T16:40:24.798Z,27.30
2022-08-05T16:42:52.239Z,27.20
2022-08-05T16:46:03.733Z,27.20
2022-08-05T16:48:06.314Z,27.10
2022-08-05T16:50:33.218Z,27.10
2022-08-05T16:53:09.191Z,27.00
2022-08-05T16:55:46.771Z,26.90
2022-08-05T16:58:14.668Z,26.80
2022-08-05T17:00:48.133Z,26.80
2022-08-05T17:03:19.984Z,26.80
2022-08-05T17:05:53.749Z,26.80
2022-08-05T17:08:36.778Z,26.80
2022-08-05T17:11:16.501Z,26.90
2022-08-05T17:13:45.103Z,26.80
2022-08-05T17:16:33.294Z,26.80
2022-08-05T17:19:00.147Z,26.80
2022-08-05T17:21:35.465Z,26.80
2022-08-05T17:24:18.418Z,26.80
2022-08-05T17:26:52.487Z,26.70
2022-08-05T17:29:22.566Z,26.70
2022-08-05T17:31:59.962Z,26.70
2022-08-05T17:34:30.251Z,26.80
2022-08-05T17:37:00.155Z,26.70
2022-08-05T17:39:33.516Z,26.70
2022-08-05T17:42:19.961Z,26.70
2022-08-05T17:44:51.037Z,26.70
2022-08-05T17:47:22.849Z,26.60
2022-08-05T17:50:04.102Z,26.60
2022-08-05T17:52:53.306Z,26.50
2022-08-05T17:55:22.799Z,26.40
2022-08-05T17:58:02.052Z,26.30
2022-08-05T18:00:29.671Z,26.30
2022-08-05T18:02:56.969Z,26.20
2022-08-05T18:05:24.151Z,26.10
2022-08-05T18:07:56.731Z,26.10
2022-08-05T18:10:24.329Z,26.00
2022-08-05T18:12:52.586Z,25.90
2022-08-05T18:15:20.204Z,25.70
2022-08-05T18:18:01.034Z,25.60
2022-08-05T18:20:32.610Z,25.50
2022-08-05T18:23:09.487Z,25.40
2022-08-05T18:25:45.150Z,25.30
2022-08-05T18:28:16.635Z,25.30
2022-08-05T18:30:45.421Z,25.10
2022-08-05T18:33:17.007Z,25.00
2022-08-05T18:36:03.229Z,25.00
2022-08-05T18:38:35.882Z,24.90
2022-08-05T18:41:56.361Z,24.70
2022-08-05T18:43:51.515Z,24.60
2022-08-05T18:46:19.522Z,24.50
2022-08-05T18:48:51.576Z,24.40
2022-08-05T18:52:05.557Z,24.40
2022-08-05T18:54:26.487Z,24.30
2022-08-05T18:56:57.106Z,24.10
2022-08-05T18:59:44.173Z,24.10
2022-08-05T19:02:28.267Z,24.00
2022-08-05T19:05:02.056Z,24.00
2022-08-05T19:07:47.898Z,24.00
2022-08-05T19:10:28.142Z,23.90
2022-08-05T19:12:56.352Z,24.00
2022-08-05T19:15:54.748Z,24.00
2022-08-05T19:18:13.652Z,24.00
2022-08-05T19:20:52.232Z,24.00
2022-08-05T19:24:04.481Z,24.00
2022-08-05T19:26:09.343Z,24.00
2022-08-05T19:28:42.030Z,24.00
2022-08-05T19:31:13.383Z,24.00
2022-08-05T19:33:48.609Z,24.00
2022-08-05T19:36:25.718Z,23.90
2022-08-05T19:38:55.210Z,23.90
2022-08-05T19:41:58.078Z,23.90
2022-08-05T19:44:18.696Z,23.80
2022-08-05T19:46:45.936Z,23.80
2022-08-05T19:49:17.146Z,23.70
2022-08-05T19:52:05.328Z,23.70
2022-08-05T19:54:34.293Z,23.60
2022-08-05T19:57:06.723Z,23.50
2022-08-05T19:59:55.137Z,23.50
2022-08-05T20:02:26.206Z,23.40
2022-08-05T20:04:55.446Z,23.40
2022-08-05T20:07:46.829Z,23.40
2022-08-05T20:10:14.508Z,23.30
2022-08-05T20:12:45.969Z,23.40
2022-08-05T20:15:48.663Z,23.30
2022-08-05T20:18:04.382Z,23.30
2022-08-05T20:20:38.603Z,23.30
2022-08-05T20:23:05.778Z,23.20
2022-08-05T20:25:39.942Z,23.20
2022-08-05T20:28:08.297Z,23.10
2022-08-05T20:30:40.809Z,23.10
2022-08-05T20:33:08.904Z,23.00
2022-08-05T20:35:40.305Z,23.00
2022-08-05T20:38:20.253Z,22.90
2022-08-05T20:40:53.744Z,22.80
2022-08-05T20:43:57.600Z,22.70
2022-08-05T20:46:18.380Z,22.60
2022-08-05T20:48:52.070Z,22.60
2022-08-05T20:51:19.083Z,22.60
2022-08-05T20:53:56.176Z,22.50
2022-08-05T20:56:28.695Z,22.50
2022-08-05T20:59:00.091Z,22.40
2022-08-05T21:01:41.670Z,22.40
2022-08-05T21:04:10.721Z,22.40
2022-08-05T21:06:45.040Z,22.40
2022-08-05T21:09:14.232Z,22.40
2022-08-05T21:12:07.479Z,22.40
2022-08-05T21:14:34.760Z,22.30
2022-08-05T21:17:02.924Z,22.30
2022-08-05T21:19:47.469Z,22.30
2022-08-05T21:22:17.629Z,22.30
2022-08-05T21:24:48.903Z,22.30
2022-08-05T21:27:23.891Z,22.20
2022-08-05T21:29:55.279Z,22.20
2022-08-05T21:32:23.684Z,22.20
2022-08-05T21:35:08.661Z,22.10
2022-08-05T21:37:41.397Z,22.20
2022-08-05T21:40:13.016Z,22.20
2022-08-05T21:42:45.309Z,22.10
2022-08-05T21:45:24.902Z,22.10
2022-08-05T21:48:06.319Z,22.10
2022-08-05T21:50:36.752Z,22.10
2022-08-05T21:53:16.377Z,22.10
2022-08-05T21:56:06.420Z,22.00
2022-08-05T21:58:32.196Z,21.90
2022-08-05T22:00:59.732Z,21.90
2022-08-05T22:03:49.088Z,21.90
2022-08-05T22:06:15.976Z,21.90
2022-08-05T22:08:50.553Z,21.90
2022-08-05T22:11:19.988Z,21.90
2022-08-05T22:14:32.517Z,21.90
2022-08-05T22:16:51.314Z,21.90
2022-08-05T22:20:00.390Z,21.90
2022-08-05T22:22:07.104Z,21.90
2022-08-05T22:24:53.584Z,21.90
2022-08-05T22:28:09.953Z,21.80
2022-08-05T22:30:35.200Z,21.80
2022-08-05T22:33:15.168Z,21.80
2022-08-05T22:35:48.559Z,21.80
2022-08-05T22:38:17.129Z,21.80
2022-08-05T22:40:49.581Z,21.70
2022-08-05T22:43:36.998Z,21.80
2022-08-05T22:46:12.310Z,21.80
2022-08-05T22:48:41.824Z,21.80
2022-08-05T22:51:16.121Z,21.90
2022-08-05T22:53:50.590Z,21.90
2022-08-05T22:56:30.703Z,21.90
2022-08-05T22:59:03.970Z,21.90
2022-08-05T23:02:04.630Z,21.90
2022-08-05T23:04:33.949Z,21.80
2022-08-05T23:07:01.112Z,21.80
2022-08-05T23:09:57.225Z,21.90
2022-08-05T23:12:18.002Z,21.90
2022-08-05T23:14:45.097Z,21.90
2022-08-05T23:17:34.390Z,21.90
2022-08-05T23:20:10.494Z,21.90
2022-08-05T23:22:47.420Z,21.90
2022-08-05T23:25:54.795Z,21.90
2022-08-05T23:28:07.084Z,21.90
2022-08-05T23:30:39.723Z,21.90
2022-08-05T23:33:06.968Z,21.90
2022-08-05T23:35:43.568Z,21.90
2022-08-05T23:38:12.088Z,21.90
2022-08-05T23:40:39.189Z,21.90
2022-08-05T23:43:24.335Z,21.90
2022-08-05T23:45:56.117Z,21.90
2022-08-05T23:48:25.259Z,21.90
2022-08-05T23:50:53.426Z,21.90
2022-08-05T23:53:22.663Z,22.00
2022-08-05T23:55:50.284Z,22.00
2022-08-05T23:58:31.989Z,22.00
